Point Arena, California
Current Conditions -  °F | °C
As of 5:56 PM on Tuesday 21 Oct 2014 (Local Time) from KUKI Reporting Station
Clear Clear  
Wind Chill: 64°   Ceiling: Unl
Heat Index: 64°   Visibility: 10mi
Dew Point: 46°   Wind: 5mph
Humidity: 52%   Direction: 300°WNW
Pressure: 30.03"   Gusts: NA
Location:  38.91°N, 123.69°W
Report Text: KUKI 220056Z AUTO 30004KT 10SM CLR 18/08 A3003 RMK AO2 SLP165 T01780078
Loading
Personal Weather Stations






























Interactive Weather Map
Tropical Storm Tracking
New forecast layout! Learn more

10-Day Weather Forecast

Advertisements
Track Severe Weather on mobile